sensor_id;sensor_type;location;lat;lon;timestamp;temperature;humidity
26051;DHT22;13825;53.496;10.020;2024-01-15T00:01:14;1.30;96.60
26051;DHT22;13825;53.496;10.020;2024-01-15T00:03:59;1.30;99.90
26051;DHT22;13825;53.496;10.020;2024-01-15T00:06:27;1.20;99.90
26051;DHT22;13825;53.496;10.020;2024-01-15T00:09:07;1.30;99.90
26051;DHT22;13825;53.496;10.020;2024-01-15T00:11:40;1.70;99.90
26051;DHT22;13825;53.496;10.020;2024-01-15T00:14:45;1.40;13.60
26051;DHT22;13825;53.496;10.020;2024-01-15T00:17:21;1.60;10.10
26051;DHT22;13825;53.496;10.020;2024-01-15T00:19:48;1.40;17.90
26051;DHT22;13825;53.496;10.020;2024-01-15T00:22:20;1.30;99.90
26051;DHT22;13825;53.496;10.020;2024-01-15T00:25:00;1.20;99.90
26051;DHT22;13825;53.496;10.020;2024-01-15T00:27:28;1.90;99.90
26051;DHT22;13825;53.496;10.020;2024-01-15T00:33:12;1.40;99.90
26051;DHT22;13825;53.496;10.020;2024-01-15T00:35:40;1.40;99.90
26051;DHT22;13825;53.496;10.020;2024-01-15T00:38:15;1.30;99.90
26051;DHT22;13825;53.496;10.020;2024-01-15T00:40:42;1.30;99.90
26051;DHT22;13825;53.496;10.020;2024-01-15T00:43:15;1.30;99.90
26051;DHT22;13825;53.496;10.020;2024-01-15T00:45:49;1.20;99.90
26051;DHT22;13825;53.496;10.020;2024-01-15T00:48:18;1.20;99.90
26051;DHT22;13825;53.496;10.020;2024-01-15T00:50:45;1.10;99.90
26051;DHT22;13825;53.496;10.020;2024-01-15T00:53:13;1.30;99.90
26051;DHT22;13825;53.496;10.020;2024-01-15T00:55:41;1.20;99.90
26051;DHT22;13825;53.496;10.020;2024-01-15T00:58:14;1.10;99.90
26051;DHT22;13825;53.496;10.020;2024-01-15T01:00:43;1.20;99.90
26051;DHT22;13825;53.496;10.020;2024-01-15T01:06:16;1.40;99.90
26051;DHT22;13825;53.496;10.020;2024-01-15T01:08:45;1.10;99.90
26051;DHT22;13825;53.496;10.020;2024-01-15T01:11:18;1.30;99.90
26051;DHT22;13825;53.496;10.020;2024-01-15T01:13:47;1.40;99.80
26051;DHT22;13825;53.496;10.020;2024-01-15T01:16:28;1.40;4.40
26051;DHT22;13825;53.496;10.020;2024-01-15T01:19:06;1.50;1.00
26051;DHT22;13825;53.496;10.020;2024-01-15T01:21:40;1.30;1.00
26051;DHT22;13825;53.496;10.020;2024-01-15T01:24:08;1.60;1.00
26051;DHT22;13825;53.496;10.020;2024-01-15T01:26:35;1.70;1.00
26051;DHT22;13825;53.496;10.020;2024-01-15T01:29:05;1.60;1.00
26051;DHT22;13825;53.496;10.020;2024-01-15T01:31:32;1.60;1.00
26051;DHT22;13825;53.496;10.020;2024-01-15T01:34:00;1.70;1.00
26051;DHT22;13825;53.496;10.020;2024-01-15T01:36:28;1.80;1.00
26051;DHT22;13825;53.496;10.020;2024-01-15T01:38:58;1.70;1.00
26051;DHT22;13825;53.496;10.020;2024-01-15T01:41:25;1.70;1.00
26051;DHT22;13825;53.496;10.020;2024-01-15T01:43:52;1.60;1.00
26051;DHT22;13825;53.496;10.020;2024-01-15T01:46:19;1.50;1.00
26051;DHT22;13825;53.496;10.020;2024-01-15T01:48:46;1.60;1.00
26051;DHT22;13825;53.496;10.020;2024-01-15T01:51:21;1.60;1.00
26051;DHT22;13825;53.496;10.020;2024-01-15T01:53:50;1.50;1.00
26051;DHT22;13825;53.496;10.020;2024-01-15T01:56:18;1.40;25.50
26051;DHT22;13825;53.496;10.020;2024-01-15T01:58:47;1.40;86.50
26051;DHT22;13825;53.496;10.020;2024-01-15T02:01:14;1.30;37.10
26051;DHT22;13825;53.496;10.020;2024-01-15T02:03:52;1.40;10.00
26051;DHT22;13825;53.496;10.020;2024-01-15T02:06:22;1.90;71.40
26051;DHT22;13825;53.496;10.020;2024-01-15T02:08:52;1.40;42.90
26051;DHT22;13825;53.496;10.020;2024-01-15T02:11:24;1.40;81.00
26051;DHT22;13825;53.496;10.020;2024-01-15T02:13:52;1.50;99.90
26051;DHT22;13825;53.496;10.020;2024-01-15T02:16:21;1.50;69.60
26051;DHT22;13825;53.496;10.020;2024-01-15T02:18:47;1.50;99.90
26051;DHT22;13825;53.496;10.020;2024-01-15T02:21:16;1.50;91.80
26051;DHT22;13825;53.496;10.020;2024-01-15T02:23:50;1.60;99.90
26051;DHT22;13825;53.496;10.020;2024-01-15T02:26:17;1.50;99.90
26051;DHT22;13825;53.496;10.020;2024-01-15T02:28:50;1.60;99.90
26051;DHT22;13825;53.496;10.020;2024-01-15T02:31:19;1.70;99.90
26051;DHT22;13825;53.496;10.020;2024-01-15T02:33:48;1.50;99.90
26051;DHT22;13825;53.496;10.020;2024-01-15T02:36:15;1.30;99.90
26051;DHT22;13825;53.496;10.020;2024-01-15T02:38:42;1.10;99.90
26051;DHT22;13825;53.496;10.020;2024-01-15T02:41:10;1.50;99.90
26051;DHT22;13825;53.496;10.020;2024-01-15T02:43:39;1.50;99.90
26051;DHT22;13825;53.496;10.020;2024-01-15T02:46:06;1.50;99.90
26051;DHT22;13825;53.496;10.020;2024-01-15T02:48:33;1.60;99.90
26051;DHT22;13825;53.496;10.020;2024-01-15T02:51:02;1.60;99.90
26051;DHT22;13825;53.496;10.020;2024-01-15T02:53:29;1.60;99.90
26051;DHT22;13825;53.496;10.020;2024-01-15T02:55:56;1.70;99.90
26051;DHT22;13825;53.496;10.020;2024-01-15T02:58:24;1.60;99.90
26051;DHT22;13825;53.496;10.020;2024-01-15T03:00:51;1.60;99.90
26051;DHT22;13825;53.496;10.020;2024-01-15T03:03:19;1.60;99.90
26051;DHT22;13825;53.496;10.020;2024-01-15T03:05:46;1.40;99.90
26051;DHT22;13825;53.496;10.020;2024-01-15T03:08:13;1.70;99.90
26051;DHT22;13825;53.496;10.020;2024-01-15T03:10:40;1.10;99.90
26051;DHT22;13825;53.496;10.020;2024-01-15T03:13:10;1.20;99.90
26051;DHT22;13825;53.496;10.020;2024-01-15T03:15:39;1.50;99.90
26051;DHT22;13825;53.496;10.020;2024-01-15T03:18:06;1.40;99.90
26051;DHT22;13825;53.496;10.020;2024-01-15T03:20:33;1.40;99.90
26051;DHT22;13825;53.496;10.020;2024-01-15T03:22:59;1.40;99.90
26051;DHT22;13825;53.496;10.020;2024-01-15T03:25:29;1.40;99.90
26051;DHT22;13825;53.496;10.020;2024-01-15T03:27:59;1.30;1.00
26051;DHT22;13825;53.496;10.020;2024-01-15T03:30:25;1.30;1.00
26051;DHT22;13825;53.496;10.020;2024-01-15T03:32:55;1.30;1.00
26051;DHT22;13825;53.496;10.020;2024-01-15T03:35:25;1.30;1.00
26051;DHT22;13825;53.496;10.020;2024-01-15T03:38:00;1.70;1.00
26051;DHT22;13825;53.496;10.020;2024-01-15T03:40:29;1.40;1.00
26051;DHT22;13825;53.496;10.020;2024-01-15T03:43:10;1.30;1.00
26051;DHT22;13825;53.496;10.020;2024-01-15T03:45:44;1.40;1.00
26051;DHT22;13825;53.496;10.020;2024-01-15T03:48:13;1.70;1.00
26051;DHT22;13825;53.496;10.020;2024-01-15T03:50:40;1.30;1.00
26051;DHT22;13825;53.496;10.020;2024-01-15T03:53:06;1.20;1.00
26051;DHT22;13825;53.496;10.020;2024-01-15T03:55:35;0.90;6.50
26051;DHT22;13825;53.496;10.020;2024-01-15T03:58:03;0.50;3.70
26051;DHT22;13825;53.496;10.020;2024-01-15T04:00:52;1.20;1.10
26051;DHT22;13825;53.496;10.020;2024-01-15T04:03:44;1.20;1.00
26051;DHT22;13825;53.496;10.020;2024-01-15T04:06:12;1.20;7.90
26051;DHT22;13825;53.496;10.020;2024-01-15T04:08:41;1.20;1.00
26051;DHT22;13825;53.496;10.020;2024-01-15T04:11:08;1.20;1.00
26051;DHT22;13825;53.496;10.020;2024-01-15T04:13:34;1.30;1.00
26051;DHT22;13825;53.496;10.020;2024-01-15T04:16:10;1.30;1.00
26051;DHT22;13825;53.496;10.020;2024-01-15T04:21:26;1.60;1.00
26051;DHT22;13825;53.496;10.020;2024-01-15T04:23:53;1.40;1.00
26051;DHT22;13825;53.496;10.020;2024-01-15T04:26:20;1.30;1.00
26051;DHT22;13825;53.496;10.020;2024-01-15T04:28:47;1.50;1.00
26051;DHT22;13825;53.496;10.020;2024-01-15T04:31:20;1.40;99.90
26051;DHT22;13825;53.496;10.020;2024-01-15T04:33:47;1.40;99.90
26051;DHT22;13825;53.496;10.020;2024-01-15T04:36:25;1.70;99.90
26051;DHT22;13825;53.496;10.020;2024-01-15T04:39:02;1.30;99.90
26051;DHT22;13825;53.496;10.020;2024-01-15T04:41:38;1.50;99.90
26051;DHT22;13825;53.496;10.020;2024-01-15T04:44:05;1.40;99.90
26051;DHT22;13825;53.496;10.020;2024-01-15T04:46:32;1.70;99.90
26051;DHT22;13825;53.496;10.020;2024-01-15T04:48:59;1.30;99.90
26051;DHT22;13825;53.496;10.020;2024-01-15T04:51:26;1.30;99.90
26051;DHT22;13825;53.496;10.020;2024-01-15T04:53:58;1.30;99.90
26051;DHT22;13825;53.496;10.020;2024-01-15T04:56:28;1.60;99.90
26051;DHT22;13825;53.496;10.020;2024-01-15T04:59:09;1.30;99.90
26051;DHT22;13825;53.496;10.020;2024-01-15T05:01:44;1.30;99.90
26051;DHT22;13825;53.496;10.020;2024-01-15T05:04:11;1.60;99.90
26051;DHT22;13825;53.496;10.020;2024-01-15T05:06:38;1.30;99.90
26051;DHT22;13825;53.496;10.020;2024-01-15T05:09:17;1.30;99.90
26051;DHT22;13825;53.496;10.020;2024-01-15T05:11:45;1.40;99.90
26051;DHT22;13825;53.496;10.020;2024-01-15T05:14:12;1.30;99.90
26051;DHT22;13825;53.496;10.020;2024-01-15T05:19:24;1.30;99.90
26051;DHT22;13825;53.496;10.020;2024-01-15T05:21:51;1.30;99.90
26051;DHT22;13825;53.496;10.020;2024-01-15T05:24:18;1.30;99.90
26051;DHT22;13825;53.496;10.020;2024-01-15T05:26:46;1.40;99.90
26051;DHT22;13825;53.496;10.020;2024-01-15T05:29:13;1.30;99.90
26051;DHT22;13825;53.496;10.020;2024-01-15T05:31:40;1.30;99.90
26051;DHT22;13825;53.496;10.020;2024-01-15T05:34:06;1.60;99.90
26051;DHT22;13825;53.496;10.020;2024-01-15T05:36:33;1.50;99.90
26051;DHT22;13825;53.496;10.020;2024-01-15T05:39:03;1.60;99.90
26051;DHT22;13825;53.496;10.020;2024-01-15T05:41:30;1.50;99.90
26051;DHT22;13825;53.496;10.020;2024-01-15T05:43:58;1.40;99.90
26051;DHT22;13825;53.496;10.020;2024-01-15T05:46:25;1.60;99.90
26051;DHT22;13825;53.496;10.020;2024-01-15T05:48:51;1.60;99.90
26051;DHT22;13825;53.496;10.020;2024-01-15T05:51:29;1.60;99.90
26051;DHT22;13825;53.496;10.020;2024-01-15T05:53:55;1.70;99.90
26051;DHT22;13825;53.496;10.020;2024-01-15T06:01:52;1.70;99.90
26051;DHT22;13825;53.496;10.020;2024-01-15T06:04:37;2.00;99.90
26051;DHT22;13825;53.496;10.020;2024-01-15T06:07:03;1.70;73.20
26051;DHT22;13825;53.496;10.020;2024-01-15T06:09:33;2.10;99.90
26051;DHT22;13825;53.496;10.020;2024-01-15T06:12:07;1.70;23.20
26051;DHT22;13825;53.496;10.020;2024-01-15T06:14:34;1.60;60.70
26051;DHT22;13825;53.496;10.020;2024-01-15T06:17:09;1.90;91.40
26051;DHT22;13825;53.496;10.020;2024-01-15T06:22:39;1.60;90.20
26051;DHT22;13825;53.496;10.020;2024-01-15T06:25:06;1.50;99.90
26051;DHT22;13825;53.496;10.020;2024-01-15T06:27:33;1.60;75.10
26051;DHT22;13825;53.496;10.020;2024-01-15T06:38:56;2.40;34.20
26051;DHT22;13825;53.496;10.020;2024-01-15T06:41:32;1.70;41.10
26051;DHT22;13825;53.496;10.020;2024-01-15T06:43:59;1.60;15.50
26051;DHT22;13825;53.496;10.020;2024-01-15T06:46:32;1.60;34.20
26051;DHT22;13825;53.496;10.020;2024-01-15T06:48:59;1.60;18.50
26051;DHT22;13825;53.496;10.020;2024-01-15T06:51:26;1.50;57.90
26051;DHT22;13825;53.496;10.020;2024-01-15T06:56:43;1.00;1.00
26051;DHT22;13825;53.496;10.020;2024-01-15T06:59:25;1.50;18.40
26051;DHT22;13825;53.496;10.020;2024-01-15T07:01:55;1.50;21.30
26051;DHT22;13825;53.496;10.020;2024-01-15T07:04:31;1.50;34.90
26051;DHT22;13825;53.496;10.020;2024-01-15T07:06:58;1.50;70.90
26051;DHT22;13825;53.496;10.020;2024-01-15T07:12:05;1.40;34.50
26051;DHT22;13825;53.496;10.020;2024-01-15T07:14:41;1.60;1.00
26051;DHT22;13825;53.496;10.020;2024-01-15T07:17:14;1.40;1.00
26051;DHT22;13825;53.496;10.020;2024-01-15T07:19:43;1.50;1.00
26051;DHT22;13825;53.496;10.020;2024-01-15T07:22:21;1.40;1.00
26051;DHT22;13825;53.496;10.020;2024-01-15T07:24:53;1.40;1.00
26051;DHT22;13825;53.496;10.020;2024-01-15T07:27:26;1.50;1.00
26051;DHT22;13825;53.496;10.020;2024-01-15T07:29:56;1.50;1.00
26051;DHT22;13825;53.496;10.020;2024-01-15T07:32:26;1.50;1.00
26051;DHT22;13825;53.496;10.020;2024-01-15T07:34:59;1.60;1.00
26051;DHT22;13825;53.496;10.020;2024-01-15T07:37:32;1.60;1.00
26051;DHT22;13825;53.496;10.020;2024-01-15T07:40:10;1.60;1.00
26051;DHT22;13825;53.496;10.020;2024-01-15T07:42:45;1.70;1.00
26051;DHT22;13825;53.496;10.020;2024-01-15T07:45:17;1.80;1.00
26051;DHT22;13825;53.496;10.020;2024-01-15T07:47:48;1.70;1.00
26051;DHT22;13825;53.496;10.020;2024-01-15T07:50:18;1.70;1.00
26051;DHT22;13825;53.496;10.020;2024-01-15T07:52:50;1.60;1.00
26051;DHT22;13825;53.496;10.020;2024-01-15T07:55:25;1.80;1.00
26051;DHT22;13825;53.496;10.020;2024-01-15T07:58:05;1.70;1.00
26051;DHT22;13825;53.496;10.020;2024-01-15T08:00:35;1.60;1.00
26051;DHT22;13825;53.496;10.020;2024-01-15T08:03:06;1.70;1.00
26051;DHT22;13825;53.496;10.020;2024-01-15T08:05:44;1.60;1.00
26051;DHT22;13825;53.496;10.020;2024-01-15T08:08:22;1.70;1.00
26051;DHT22;13825;53.496;10.020;2024-01-15T08:11:02;1.50;1.00
26051;DHT22;13825;53.496;10.020;2024-01-15T08:13:48;1.60;1.00
26051;DHT22;13825;53.496;10.020;2024-01-15T08:16:28;1.60;1.00
26051;DHT22;13825;53.496;10.020;2024-01-15T08:18:58;1.60;1.00
26051;DHT22;13825;53.496;10.020;2024-01-15T08:21:41;1.70;1.00
26051;DHT22;13825;53.496;10.020;2024-01-15T08:24:14;1.70;1.00
26051;DHT22;13825;53.496;10.020;2024-01-15T08:26:53;1.70;1.00
26051;DHT22;13825;53.496;10.020;2024-01-15T08:29:27;1.70;1.00
26051;DHT22;13825;53.496;10.020;2024-01-15T08:32:00;1.60;1.00
26051;DHT22;13825;53.496;10.020;2024-01-15T08:34:40;1.90;1.00
26051;DHT22;13825;53.496;10.020;2024-01-15T08:37:16;1.70;1.00
26051;DHT22;13825;53.496;10.020;2024-01-15T08:39:43;1.70;1.00
26051;DHT22;13825;53.496;10.020;2024-01-15T08:42:13;1.70;1.00
26051;DHT22;13825;53.496;10.020;2024-01-15T08:44:53;1.70;1.00
26051;DHT22;13825;53.496;10.020;2024-01-15T08:47:23;1.90;1.00
26051;DHT22;13825;53.496;10.020;2024-01-15T08:50:01;1.80;1.00
26051;DHT22;13825;53.496;10.020;2024-01-15T08:52:30;1.60;1.00
26051;DHT22;13825;53.496;10.020;2024-01-15T08:55:04;1.60;1.00
26051;DHT22;13825;53.496;10.020;2024-01-15T08:57:34;1.60;1.00
26051;DHT22;13825;53.496;10.020;2024-01-15T09:00:06;1.60;1.00
26051;DHT22;13825;53.496;10.020;2024-01-15T09:02:39;1.60;1.00
26051;DHT22;13825;53.496;10.020;2024-01-15T09:05:15;1.50;1.00
26051;DHT22;13825;53.496;10.020;2024-01-15T09:07:55;1.60;1.00
26051;DHT22;13825;53.496;10.020;2024-01-15T09:10:27;1.60;1.00
26051;DHT22;13825;53.496;10.020;2024-01-15T09:12:55;1.70;1.00
26051;DHT22;13825;53.496;10.020;2024-01-15T09:15:38;1.70;1.00
26051;DHT22;13825;53.496;10.020;2024-01-15T09:18:10;1.80;1.00
26051;DHT22;13825;53.496;10.020;2024-01-15T09:20:37;1.60;1.00
26051;DHT22;13825;53.496;10.020;2024-01-15T09:23:06;1.60;1.00
26051;DHT22;13825;53.496;10.020;2024-01-15T09:25:38;1.80;1.00
26051;DHT22;13825;53.496;10.020;2024-01-15T09:28:16;1.60;1.00
26051;DHT22;13825;53.496;10.020;2024-01-15T09:30:52;1.80;1.00
26051;DHT22;13825;53.496;10.020;2024-01-15T09:33:31;1.80;1.00
26051;DHT22;13825;53.496;10.020;2024-01-15T09:36:03;2.00;1.00
26051;DHT22;13825;53.496;10.020;2024-01-15T09:38:40;1.80;1.00
26051;DHT22;13825;53.496;10.020;2024-01-15T09:41:20;1.90;1.00
26051;DHT22;13825;53.496;10.020;2024-01-15T09:44:00;1.80;1.00
26051;DHT22;13825;53.496;10.020;2024-01-15T09:52:07;1.90;58.50
26051;DHT22;13825;53.496;10.020;2024-01-15T09:54:37;1.80;99.90
26051;DHT22;13825;53.496;10.020;2024-01-15T09:57:08;2.00;99.90
26051;DHT22;13825;53.496;10.020;2024-01-15T09:59:38;2.10;43.50
26051;DHT22;13825;53.496;10.020;2024-01-15T10:02:19;2.00;63.20
26051;DHT22;13825;53.496;10.020;2024-01-15T10:04:59;2.20;1.00
26051;DHT22;13825;53.496;10.020;2024-01-15T10:10:32;2.30;1.00
26051;DHT22;13825;53.496;10.020;2024-01-15T10:13:07;2.20;1.00
26051;DHT22;13825;53.496;10.020;2024-01-15T10:15:51;2.10;1.00
26051;DHT22;13825;53.496;10.020;2024-01-15T10:18:26;2.10;1.00
26051;DHT22;13825;53.496;10.020;2024-01-15T10:23:52;1.90;1.00
26051;DHT22;13825;53.496;10.020;2024-01-15T10:26:48;1.70;1.00
26051;DHT22;13825;53.496;10.020;2024-01-15T10:29:24;1.70;20.60
26051;DHT22;13825;53.496;10.020;2024-01-15T10:35:31;1.40;95.40
26051;DHT22;13825;53.496;10.020;2024-01-15T10:50:16;1.40;99.90
26051;DHT22;13825;53.496;10.020;2024-01-15T10:52:43;1.40;99.90
26051;DHT22;13825;53.496;10.020;2024-01-15T10:55:11;0.60;99.90
26051;DHT22;13825;53.496;10.020;2024-01-15T10:57:39;1.10;99.90
26051;DHT22;13825;53.496;10.020;2024-01-15T11:00:07;1.00;1.00
26051;DHT22;13825;53.496;10.020;2024-01-15T11:02:34;0.90;1.00
26051;DHT22;13825;53.496;10.020;2024-01-15T11:05:02;0.90;1.00
26051;DHT22;13825;53.496;10.020;2024-01-15T11:07:31;0.90;1.00
26051;DHT22;13825;53.496;10.020;2024-01-15T11:09:59;0.70;1.00
26051;DHT22;13825;53.496;10.020;2024-01-15T11:12:29;0.80;1.00
26051;DHT22;13825;53.496;10.020;2024-01-15T11:15:01;1.10;1.00
26051;DHT22;13825;53.496;10.020;2024-01-15T11:17:30;0.80;1.00
26051;DHT22;13825;53.496;10.020;2024-01-15T11:20:16;0.80;1.00
26051;DHT22;13825;53.496;10.020;2024-01-15T11:22:50;0.80;1.00
26051;DHT22;13825;53.496;10.020;2024-01-15T11:25:18;0.90;1.00
26051;DHT22;13825;53.496;10.020;2024-01-15T11:27:46;0.80;1.00
26051;DHT22;13825;53.496;10.020;2024-01-15T11:30:16;0.80;1.90
26051;DHT22;13825;53.496;10.020;2024-01-15T11:32:42;0.90;29.50
26051;DHT22;13825;53.496;10.020;2024-01-15T11:35:10;0.90;17.20
26051;DHT22;13825;53.496;10.020;2024-01-15T11:37:58;0.90;1.00
26051;DHT22;13825;53.496;10.020;2024-01-15T11:40:36;1.00;41.10
26051;DHT22;13825;53.496;10.020;2024-01-15T11:43:03;1.00;19.80
26051;DHT22;13825;53.496;10.020;2024-01-15T11:45:30;1.00;1.00
26051;DHT22;13825;53.496;10.020;2024-01-15T11:50:46;0.90;1.00
26051;DHT22;13825;53.496;10.020;2024-01-15T11:53:21;1.00;34.90
26051;DHT22;13825;53.496;10.020;2024-01-15T11:55:50;1.00;1.00
26051;DHT22;13825;53.496;10.020;2024-01-15T11:58:17;1.00;4.90
26051;DHT22;13825;53.496;10.020;2024-01-15T12:00:47;0.90;31.10
26051;DHT22;13825;53.496;10.020;2024-01-15T12:03:17;1.00;5.10
26051;DHT22;13825;53.496;10.020;2024-01-15T12:06:04;1.00;1.00
26051;DHT22;13825;53.496;10.020;2024-01-15T12:08:33;1.00;41.40
26051;DHT22;13825;53.496;10.020;2024-01-15T12:11:13;1.10;99.90
26051;DHT22;13825;53.496;10.020;2024-01-15T12:13:42;1.10;90.00
26051;DHT22;13825;53.496;10.020;2024-01-15T12:16:15;1.20;99.90
26051;DHT22;13825;53.496;10.020;2024-01-15T12:22:03;1.10;1.00
26051;DHT22;13825;53.496;10.020;2024-01-15T12:56:28;1.00;1.00
26051;DHT22;13825;53.496;10.020;2024-01-15T12:59:15;1.00;1.00
26051;DHT22;13825;53.496;10.020;2024-01-15T13:01:42;0.90;1.00
26051;DHT22;13825;53.496;10.020;2024-01-15T13:04:20;0.80;1.00
26051;DHT22;13825;53.496;10.020;2024-01-15T13:07:19;1.10;1.00
26051;DHT22;13825;53.496;10.020;2024-01-15T13:10:00;0.90;1.00
26051;DHT22;13825;53.496;10.020;2024-01-15T13:15:30;1.20;1.00
26051;DHT22;13825;53.496;10.020;2024-01-15T13:18:00;1.00;1.00
26051;DHT22;13825;53.496;10.020;2024-01-15T13:21:08;1.10;1.00
26051;DHT22;13825;53.496;10.020;2024-01-15T13:27:02;1.00;1.00
26051;DHT22;13825;53.496;10.020;2024-01-15T13:29:31;1.00;1.00
26051;DHT22;13825;53.496;10.020;2024-01-15T13:35:18;1.00;1.00
26051;DHT22;13825;53.496;10.020;2024-01-15T13:37:58;1.10;1.00
26051;DHT22;13825;53.496;10.020;2024-01-15T13:40:28;1.30;1.00
26051;DHT22;13825;53.496;10.020;2024-01-15T13:42:57;1.10;1.00
26051;DHT22;13825;53.496;10.020;2024-01-15T13:45:24;1.10;1.00
26051;DHT22;13825;53.496;10.020;2024-01-15T13:47:51;1.20;1.00
26051;DHT22;13825;53.496;10.020;2024-01-15T13:50:19;0.70;1.00
26051;DHT22;13825;53.496;10.020;2024-01-15T13:52:46;1.00;1.00
26051;DHT22;13825;53.496;10.020;2024-01-15T13:55:13;1.50;1.00
26051;DHT22;13825;53.496;10.020;2024-01-15T13:57:43;1.10;1.00
26051;DHT22;13825;53.496;10.020;2024-01-15T14:00:11;1.10;1.00
26051;DHT22;13825;53.496;10.020;2024-01-15T14:02:40;1.10;1.00
26051;DHT22;13825;53.496;10.020;2024-01-15T14:05:07;1.10;1.00
26051;DHT22;13825;53.496;10.020;2024-01-15T14:07:35;1.10;1.00
26051;DHT22;13825;53.496;10.020;2024-01-15T14:10:02;1.10;1.00
26051;DHT22;13825;53.496;10.020;2024-01-15T14:12:29;1.10;1.00
26051;DHT22;13825;53.496;10.020;2024-01-15T14:14:56;1.10;1.00
26051;DHT22;13825;53.496;10.020;2024-01-15T14:17:25;1.60;1.00
26051;DHT22;13825;53.496;10.020;2024-01-15T14:19:53;1.20;99.90
26051;DHT22;13825;53.496;10.020;2024-01-15T14:22:20;1.10;99.90
26051;DHT22;13825;53.496;10.020;2024-01-15T14:24:48;1.10;99.90
26051;DHT22;13825;53.496;10.020;2024-01-15T14:27:17;1.50;99.90
26051;DHT22;13825;53.496;10.020;2024-01-15T14:29:44;1.00;99.90
26051;DHT22;13825;53.496;10.020;2024-01-15T14:32:11;1.60;99.90
26051;DHT22;13825;53.496;10.020;2024-01-15T14:34:39;0.90;99.90
26051;DHT22;13825;53.496;10.020;2024-01-15T14:37:06;0.90;1.00
26051;DHT22;13825;53.496;10.020;2024-01-15T14:39:33;0.90;99.90
26051;DHT22;13825;53.496;10.020;2024-01-15T14:42:02;0.90;99.90
26051;DHT22;13825;53.496;10.020;2024-01-15T14:44:29;1.30;99.90
26051;DHT22;13825;53.496;10.020;2024-01-15T14:46:58;1.00;1.00
26051;DHT22;13825;53.496;10.020;2024-01-15T14:49:25;1.00;99.90
26051;DHT22;13825;53.496;10.020;2024-01-15T14:51:54;0.90;1.00
26051;DHT22;13825;53.496;10.020;2024-01-15T14:54:24;1.00;1.00
26051;DHT22;13825;53.496;10.020;2024-01-15T14:56:51;1.20;1.00
26051;DHT22;13825;53.496;10.020;2024-01-15T14:59:19;0.90;1.00
26051;DHT22;13825;53.496;10.020;2024-01-15T15:01:46;1.00;1.00
26051;DHT22;13825;53.496;10.020;2024-01-15T15:04:13;0.80;1.00
26051;DHT22;13825;53.496;10.020;2024-01-15T15:06:40;1.00;1.00
26051;DHT22;13825;53.496;10.020;2024-01-15T15:09:07;1.40;1.00
26051;DHT22;13825;53.496;10.020;2024-01-15T15:11:37;1.00;1.00
26051;DHT22;13825;53.496;10.020;2024-01-15T15:14:04;0.90;1.00
26051;DHT22;13825;53.496;10.020;2024-01-15T15:28:40;0.60;1.00
26051;DHT22;13825;53.496;10.020;2024-01-15T15:34:33;0.70;1.00
26051;DHT22;13825;53.496;10.020;2024-01-15T15:49:42;0.80;1.00
26051;DHT22;13825;53.496;10.020;2024-01-15T15:52:09;0.70;1.00
26051;DHT22;13825;53.496;10.020;2024-01-15T15:54:36;0.90;1.00
26051;DHT22;13825;53.496;10.020;2024-01-15T15:57:03;0.60;1.00
26051;DHT22;13825;53.496;10.020;2024-01-15T15:59:30;0.60;1.00
26051;DHT22;13825;53.496;10.020;2024-01-15T16:01:57;0.30;1.00
26051;DHT22;13825;53.496;10.020;2024-01-15T16:04:25;0.60;1.00
26051;DHT22;13825;53.496;10.020;2024-01-15T16:12:54;0.60;1.00
26051;DHT22;13825;53.496;10.020;2024-01-15T16:15:27;0.60;1.00
26051;DHT22;13825;53.496;10.020;2024-01-15T16:17:56;0.70;1.00
26051;DHT22;13825;53.496;10.020;2024-01-15T16:20:24;0.60;1.00
26051;DHT22;13825;53.496;10.020;2024-01-15T16:22:52;0.50;1.00
26051;DHT22;13825;53.496;10.020;2024-01-15T16:38:29;0.40;1.00
26051;DHT22;13825;53.496;10.020;2024-01-15T16:40:59;0.20;1.00
26051;DHT22;13825;53.496;10.020;2024-01-15T16:43:27;0.30;1.00
26051;DHT22;13825;53.496;10.020;2024-01-15T16:45:54;0.30;1.00
26051;DHT22;13825;53.496;10.020;2024-01-15T16:48:21;0.40;1.00
26051;DHT22;13825;53.496;10.020;2024-01-15T16:50:51;0.40;1.00
26051;DHT22;13825;53.496;10.020;2024-01-15T16:53:19;0.40;1.00
26051;DHT22;13825;53.496;10.020;2024-01-15T16:55:47;0.30;1.00
26051;DHT22;13825;53.496;10.020;2024-01-15T16:58:14;0.30;1.00
26051;DHT22;13825;53.496;10.020;2024-01-15T17:00:56;0.40;1.00
26051;DHT22;13825;53.496;10.020;2024-01-15T17:03:25;0.40;1.00
26051;DHT22;13825;53.496;10.020;2024-01-15T17:05:56;0.10;1.00
26051;DHT22;13825;53.496;10.020;2024-01-15T17:08:23;0.30;1.00
26051;DHT22;13825;53.496;10.020;2024-01-15T17:13:51;1.00;1.00
26051;DHT22;13825;53.496;10.020;2024-01-15T17:16:28;0.40;1.00
26051;DHT22;13825;53.496;10.020;2024-01-15T17:18:55;0.30;1.00
26051;DHT22;13825;53.496;10.020;2024-01-15T17:21:34;0.40;1.00
26051;DHT22;13825;53.496;10.020;2024-01-15T17:24:02;0.30;1.00
26051;DHT22;13825;53.496;10.020;2024-01-15T17:26:32;0.20;1.00
26051;DHT22;13825;53.496;10.020;2024-01-15T17:29:00;0.40;1.00
26051;DHT22;13825;53.496;10.020;2024-01-15T17:31:29;0.90;1.00
26051;DHT22;13825;53.496;10.020;2024-01-15T17:33:56;0.30;1.00
26051;DHT22;13825;53.496;10.020;2024-01-15T17:36:24;0.30;1.00
26051;DHT22;13825;53.496;10.020;2024-01-15T17:38:51;0.30;1.00
26051;DHT22;13825;53.496;10.020;2024-01-15T17:41:18;0.40;1.00
26051;DHT22;13825;53.496;10.020;2024-01-15T17:43:45;0.30;1.00
26051;DHT22;13825;53.496;10.020;2024-01-15T17:46:14;0.40;1.00
26051;DHT22;13825;53.496;10.020;2024-01-15T17:48:41;0.40;1.00
26051;DHT22;13825;53.496;10.020;2024-01-15T17:51:08;0.30;1.00
26051;DHT22;13825;53.496;10.020;2024-01-15T17:53:36;0.30;1.00
26051;DHT22;13825;53.496;10.020;2024-01-15T18:04:55;0.30;1.00
26051;DHT22;13825;53.496;10.020;2024-01-15T18:07:22;0.40;99.90
26051;DHT22;13825;53.496;10.020;2024-01-15T18:09:48;0.30;99.90
26051;DHT22;13825;53.496;10.020;2024-01-15T18:12:15;0.20;99.90
26051;DHT22;13825;53.496;10.020;2024-01-15T18:14:43;-0.10;99.90
26051;DHT22;13825;53.496;10.020;2024-01-15T18:17:09;0.30;99.90
26051;DHT22;13825;53.496;10.020;2024-01-15T18:19:36;0.30;99.90
26051;DHT22;13825;53.496;10.020;2024-01-15T18:22:09;0.30;99.90
26051;DHT22;13825;53.496;10.020;2024-01-15T18:24:36;0.70;99.90
26051;DHT22;13825;53.496;10.020;2024-01-15T18:27:03;0.20;99.90
26051;DHT22;13825;53.496;10.020;2024-01-15T18:29:33;0.20;91.30
26051;DHT22;13825;53.496;10.020;2024-01-15T18:32:16;0.20;5.50
26051;DHT22;13825;53.496;10.020;2024-01-15T18:34:46;0.20;1.00
26051;DHT22;13825;53.496;10.020;2024-01-15T18:37:28;0.30;1.00
26051;DHT22;13825;53.496;10.020;2024-01-15T18:39:55;0.60;99.90
26051;DHT22;13825;53.496;10.020;2024-01-15T18:42:22;0.30;99.90
26051;DHT22;13825;53.496;10.020;2024-01-15T18:47:54;0.20;99.90
26051;DHT22;13825;53.496;10.020;2024-01-15T18:50:22;0.10;99.90
26051;DHT22;13825;53.496;10.020;2024-01-15T18:52:51;0.10;99.90
26051;DHT22;13825;53.496;10.020;2024-01-15T18:58:05;0.00;99.90